Time,TemperatureF,DewpointF,PressureIn,WindDirection,WindDirectionDegrees,WindSpeedMPH,WindSpeedGustMPH,Humidity,HourlyPrecipIn,Conditions,Clouds,dailyrainin,SoftwareType,DateUTC
2013-02-16 00:01:00,42.0,20.0,-100.00,WSW,247,2.0,6.0,41,-99.99,,,-99.99,,2013-02-16 08:01:00,
2013-02-16 00:11:00,39.0,20.0,-100.00,NNW,330,0.0,3.0,46,-99.99,,,-99.99,,2013-02-16 08:11:00,
2013-02-16 00:21:00,39.0,20.0,-100.00,NNW,330,0.0,3.0,46,-99.99,,,-99.99,,2013-02-16 08:21:00,
2013-02-16 00:31:00,40.0,20.0,-100.00,SW,227,2.0,5.0,44,-99.99,,,-99.99,,2013-02-16 08:31:00,
2013-02-16 00:52:00,39.0,19.0,-100.00,NW,311,1.0,2.0,44,-99.99,,,-99.99,,2013-02-16 08:52:00,
2013-02-16 01:01:00,39.0,19.0,-100.00,NW,311,1.0,2.0,44,-99.99,,,-99.99,,2013-02-16 09:01:00,
2013-02-16 01:11:00,39.0,19.0,-100.00,SW,226,1.0,2.0,45,-99.99,,,-99.99,,2013-02-16 09:11:00,
2013-02-16 01:21:00,39.0,19.0,-100.00,SW,226,1.0,2.0,45,-99.99,,,-99.99,,2013-02-16 09:21:00,
2013-02-16 01:52:00,38.0,19.0,-100.00,NE,40,3.0,5.0,46,-99.99,,,-99.99,,2013-02-16 09:52:00,
2013-02-16 02:01:00,38.0,19.0,-100.00,NE,40,3.0,5.0,46,-99.99,,,-99.99,,2013-02-16 10:01:00,
2013-02-16 02:11:00,37.0,17.0,-100.00,NNE,32,1.0,3.0,44,-99.99,,,-99.99,,2013-02-16 10:11:00,
2013-02-16 02:21:00,37.0,17.0,-100.00,NNE,32,1.0,3.0,44,-99.99,,,-99.99,,2013-02-16 10:21:00,
2013-02-16 02:52:00,38.0,15.0,-100.00,NE,44,2.0,7.0,38,-99.99,,,-99.99,,2013-02-16 10:52:00,
2013-02-16 03:02:00,38.0,15.0,-100.00,NE,44,2.0,7.0,38,-99.99,,,-99.99,,2013-02-16 11:02:00,
2013-02-16 03:11:00,37.0,15.0,-100.00,NE,38,1.0,2.0,39,-99.99,,,-99.99,,2013-02-16 11:11:00,
2013-02-16 03:22:00,37.0,15.0,-100.00,NE,38,1.0,2.0,39,-99.99,,,-99.99,,2013-02-16 11:22:00,
2013-02-16 03:31:00,37.0,12.0,-100.00,NE,54,2.0,4.0,34,-99.99,,,-99.99,,2013-02-16 11:31:00,
2013-02-16 04:12:00,38.0,13.0,-100.00,SW,233,5.0,9.0,34,-99.99,,,-99.99,,2013-02-16 12:12:00,
2013-02-16 04:22:00,38.0,13.0,-100.00,SW,233,5.0,9.0,34,-99.99,,,-99.99,,2013-02-16 12:22:00,
2013-02-16 04:32:00,38.0,11.0,-100.00,West,278,2.0,9.0,33,-99.99,,,-99.99,,2013-02-16 12:32:00,
2013-02-16 04:52:00,36.0,11.0,-100.00,North,4,2.0,7.0,35,-99.99,,,-99.99,,2013-02-16 12:52:00,
2013-02-16 05:01:00,36.0,11.0,-100.00,North,4,2.0,7.0,35,-99.99,,,-99.99,,2013-02-16 13:01:00,
2013-02-16 05:11:00,37.0,10.0,-100.00,NE,45,2.0,5.0,32,-99.99,,,-99.99,,2013-02-16 13:11:00,
2013-02-16 05:21:00,37.0,10.0,-100.00,NE,45,2.0,5.0,32,-99.99,,,-99.99,,2013-02-16 13:21:00,
2013-02-16 06:11:00,36.0,9.0,-100.00,NNE,25,2.0,3.0,31,-99.99,,,-99.99,,2013-02-16 14:11:00,
2013-02-16 06:32:00,37.0,8.0,-100.00,NNE,17,0.0,0.0,30,-99.99,,,-99.99,,2013-02-16 14:32:00,
2013-02-16 06:52:00,36.0,7.0,-100.00,NNE,27,2.0,3.0,29,-99.99,,,-99.99,,2013-02-16 14:52:00,
2013-02-16 07:01:00,36.0,7.0,-100.00,NNE,27,2.0,3.0,29,-99.99,,,-99.99,,2013-02-16 15:01:00,
2013-02-16 07:11:00,36.0,5.0,-100.00,NNE,21,1.0,3.0,26,-99.99,,,-99.99,,2013-02-16 15:11:00,
2013-02-16 07:21:00,36.0,5.0,-100.00,NNE,21,1.0,3.0,26,-99.99,,,-99.99,,2013-02-16 15:21:00,
2013-02-16 07:52:00,39.0,5.0,-100.00,SW,222,1.0,3.0,23,-99.99,,,-99.99,,2013-02-16 15:52:00,
2013-02-16 08:01:00,39.0,5.0,-100.00,SW,222,1.0,3.0,23,-99.99,,,-99.99,,2013-02-16 16:01:00,
2013-02-16 08:32:00,39.0,5.0,-100.00,NE,56,0.0,2.0,24,-99.99,,,-99.99,,2013-02-16 16:32:00,
2013-02-16 08:52:00,42.0,7.0,-100.00,NNE,23,0.0,1.0,23,-99.99,,,-99.99,,2013-02-16 16:52:00,
2013-02-16 09:01:00,42.0,7.0,-100.00,NNE,23,0.0,1.0,23,-99.99,,,-99.99,,2013-02-16 17:01:00,
2013-02-16 09:32:00,46.0,8.0,-100.00,South,189,1.0,3.0,21,-99.99,,,-99.99,,2013-02-16 17:32:00,
2013-02-16 09:52:00,47.0,5.0,-100.00,SSE,165,1.0,3.0,17,-99.99,,,-99.99,,2013-02-16 17:52:00,
2013-02-16 10:02:00,47.0,5.0,-100.00,SSE,165,1.0,3.0,17,-99.99,,,-99.99,,2013-02-16 18:02:00,
2013-02-16 10:11:00,46.0,12.0,-100.00,SE,137,1.0,4.0,25,-99.99,,,-99.99,,2013-02-16 18:11:00,
2013-02-16 10:33:00,47.0,15.0,-100.00,South,172,2.0,7.0,27,-99.99,,,-99.99,,2013-02-16 18:33:00,
2013-02-16 11:11:00,47.0,16.0,-100.00,SE,136,2.0,4.0,29,-99.99,,,-99.99,,2013-02-16 19:11:00,
2013-02-16 11:21:00,47.0,16.0,-100.00,SE,136,2.0,4.0,29,-99.99,,,-99.99,,2013-02-16 19:21:00,
2013-02-16 11:31:00,47.0,18.0,-100.00,ESE,109,0.0,2.0,30,-99.99,,,-99.99,,2013-02-16 19:31:00,
2013-02-16 11:52:00,49.0,18.0,-100.00,SSE,150,1.0,5.0,29,-99.99,,,-99.99,,2013-02-16 19:52:00,
2013-02-16 12:01:00,49.0,18.0,-100.00,SSE,150,1.0,5.0,29,-99.99,,,-99.99,,2013-02-16 20:01:00,
2013-02-16 12:11:00,50.0,18.0,-100.00,SE,145,2.0,7.0,28,-99.99,,,-99.99,,2013-02-16 20:11:00,
2013-02-16 12:52:00,51.0,16.0,-100.00,WNW,288,1.0,4.0,24,-99.99,,,-99.99,,2013-02-16 20:52:00,
2013-02-16 13:02:00,51.0,16.0,-100.00,WNW,288,1.0,4.0,24,-99.99,,,-99.99,,2013-02-16 21:02:00,
2013-02-16 13:11:00,51.0,17.0,-100.00,SSE,165,2.0,4.0,26,-99.99,,,-99.99,,2013-02-16 21:11:00,
2013-02-16 13:21:00,51.0,17.0,-100.00,SSE,165,2.0,4.0,26,-99.99,,,-99.99,,2013-02-16 21:21:00,
2013-02-16 13:52:00,52.0,9.0,-100.00,SSW,210,6.0,11.0,17,-99.99,,,-99.99,,2013-02-16 21:52:00,
2013-02-16 14:01:00,52.0,9.0,-100.00,SSW,210,6.0,11.0,17,-99.99,,,-99.99,,2013-02-16 22:01:00,
2013-02-16 14:32:00,51.0,7.0,-100.00,SSW,213,9.0,16.0,16,-99.99,,,-99.99,,2013-02-16 22:32:00,
2013-02-16 14:52:00,51.0,9.0,-100.00,SW,216,11.0,18.0,18,-99.99,,,-99.99,,2013-02-16 22:52:00,
2013-02-16 15:02:00,51.0,9.0,-100.00,SW,216,11.0,18.0,18,-99.99,,,-99.99,,2013-02-16 23:02:00,
2013-02-16 15:31:00,50.0,11.0,-100.00,SW,220,8.0,14.0,20,-99.99,,,-99.99,,2013-02-16 23:31:00,
2013-02-16 15:52:00,50.0,11.0,-100.00,SW,229,9.0,17.0,20,-99.99,,,-99.99,,2013-02-16 23:52:00,
2013-02-16 16:02:00,50.0,11.0,-100.00,SW,229,9.0,17.0,20,-99.99,,,-99.99,,2013-02-17 00:02:00,
2013-02-16 16:12:00,50.0,11.0,-100.00,SW,227,9.0,21.0,20,-99.99,,,-99.99,,2013-02-17 00:12:00,
2013-02-16 16:21:00,50.0,11.0,-100.00,SW,227,9.0,21.0,20,-99.99,,,-99.99,,2013-02-17 00:21:00,
2013-02-16 16:31:00,50.0,10.0,-100.00,WSW,241,8.0,19.0,19,-99.99,,,-99.99,,2013-02-17 00:31:00,
2013-02-16 16:52:00,50.0,13.0,-100.00,WSW,241,9.0,17.0,22,-99.99,,,-99.99,,2013-02-17 00:52:00,
2013-02-16 17:01:00,50.0,13.0,-100.00,WSW,241,9.0,17.0,22,-99.99,,,-99.99,,2013-02-17 01:01:00,
2013-02-16 17:11:00,50.0,12.0,-100.00,WSW,247,13.0,22.0,22,-99.99,,,-99.99,,2013-02-17 01:11:00,
2013-02-16 17:21:00,50.0,12.0,-100.00,WSW,247,13.0,22.0,22,-99.99,,,-99.99,,2013-02-17 01:21:00,
2013-02-16 17:52:00,49.0,16.0,-100.00,WSW,250,14.0,26.0,26,-99.99,,,-99.99,,2013-02-17 01:52:00,
2013-02-16 18:01:00,49.0,16.0,-100.00,WSW,250,14.0,26.0,26,-99.99,,,-99.99,,2013-02-17 02:01:00,
2013-02-16 18:11:00,48.0,16.0,-100.00,WSW,248,15.0,29.0,27,-99.99,,,-99.99,,2013-02-17 02:11:00,
2013-02-16 18:21:00,48.0,16.0,-100.00,WSW,248,15.0,29.0,27,-99.99,,,-99.99,,2013-02-17 02:21:00,
2013-02-16 18:31:00,48.0,15.0,-100.00,WSW,256,14.0,28.0,27,-99.99,,,-99.99,,2013-02-17 02:31:00,
2013-02-16 18:41:00,48.0,15.0,-100.00,WSW,256,14.0,28.0,27,-99.99,,,-99.99,,2013-02-17 02:41:00,
2013-02-16 18:52:00,47.0,17.0,-100.00,West,263,14.0,27.0,29,-99.99,,,-99.99,,2013-02-17 02:52:00,
2013-02-16 19:01:00,47.0,17.0,-100.00,West,263,14.0,27.0,29,-99.99,,,-99.99,,2013-02-17 03:01:00,
2013-02-16 19:11:00,47.0,16.0,-100.00,West,260,12.0,23.0,29,-99.99,,,-99.99,,2013-02-17 03:11:00,
2013-02-16 19:21:00,47.0,16.0,-100.00,West,260,12.0,23.0,29,-99.99,,,-99.99,,2013-02-17 03:21:00,
2013-02-16 19:31:00,47.0,14.0,-100.00,WSW,253,10.0,21.0,26,-99.99,,,-99.99,,2013-02-17 03:31:00,
2013-02-16 19:52:00,46.0,12.0,-100.00,West,261,4.0,13.0,25,-99.99,,,-99.99,,2013-02-17 03:52:00,
2013-02-16 20:01:00,46.0,12.0,-100.00,West,261,4.0,13.0,25,-99.99,,,-99.99,,2013-02-17 04:01:00,
2013-02-16 20:11:00,44.0,16.0,-100.00,SSW,208,5.0,14.0,32,-99.99,,,-99.99,,2013-02-17 04:11:00,
2013-02-16 20:21:00,44.0,16.0,-100.00,SSW,208,5.0,14.0,32,-99.99,,,-99.99,,2013-02-17 04:21:00,
2013-02-16 20:31:00,42.0,21.0,-100.00,SSW,210,3.0,6.0,42,-99.99,,,-99.99,,2013-02-17 04:31:00,
2013-02-16 20:41:00,42.0,21.0,-100.00,SSW,210,3.0,6.0,42,-99.99,,,-99.99,,2013-02-17 04:41:00,
2013-02-16 20:52:00,42.0,22.0,-100.00,WSW,257,5.0,10.0,44,-99.99,,,-99.99,,2013-02-17 04:52:00,
2013-02-16 21:01:00,42.0,22.0,-100.00,WSW,257,5.0,10.0,44,-99.99,,,-99.99,,2013-02-17 05:01:00,
2013-02-16 21:32:00,40.0,24.0,-100.00,WSW,244,6.0,11.0,53,-99.99,,,-99.99,,2013-02-17 05:32:00,
2013-02-16 21:42:00,40.0,24.0,-100.00,WSW,244,6.0,11.0,53,-99.99,,,-99.99,,2013-02-17 05:42:00,
2013-02-16 21:52:00,42.0,23.0,-100.00,West,272,6.0,11.0,46,-99.99,,,-99.99,,2013-02-17 05:52:00,
2013-02-16 22:02:00,42.0,23.0,-100.00,West,272,6.0,11.0,46,-99.99,,,-99.99,,2013-02-17 06:02:00,
2013-02-16 22:11:00,43.0,21.0,-100.00,West,277,9.0,15.0,42,-99.99,,,-99.99,,2013-02-17 06:11:00,
2013-02-16 22:21:00,43.0,21.0,-100.00,West,277,9.0,15.0,42,-99.99,,,-99.99,,2013-02-17 06:21:00,
2013-02-16 22:31:00,40.0,23.0,-100.00,WSW,248,7.0,12.0,50,-99.99,,,-99.99,,2013-02-17 06:31:00,
2013-02-16 22:41:00,40.0,23.0,-100.00,WSW,248,7.0,12.0,50,-99.99,,,-99.99,,2013-02-17 06:41:00,
2013-02-16 22:52:00,37.0,25.0,-100.00,SW,229,5.0,9.0,60,-99.99,,,-99.99,,2013-02-17 06:52:00,
2013-02-16 23:01:00,37.0,25.0,-100.00,SW,229,5.0,9.0,60,-99.99,,,-99.99,,2013-02-17 07:01:00,
2013-02-16 23:11:00,37.0,25.0,-100.00,SW,224,3.0,5.0,62,-99.99,,,-99.99,,2013-02-17 07:11:00,
2013-02-16 23:21:00,37.0,25.0,-100.00,SW,224,3.0,5.0,62,-99.99,,,-99.99,,2013-02-17 07:21:00,
2013-02-16 23:52:00,37.0,25.0,-100.00,SW,226,4.0,12.0,61,-99.99,,,-99.99,,2013-02-17 07:52:00,